sensor_id;sensor_type;location;lat;lon;timestamp;pressure;altitude;pressure_sealevel;temperature
69597;BMP180;70000;51.176;-115.568;2024-01-15T00:01:07;86764.60;;;-22.86
69597;BMP180;70000;51.176;-115.568;2024-01-15T00:03:36;86768.00;;;-22.90
69597;BMP180;70000;51.176;-115.568;2024-01-15T00:06:06;86776.00;;;-22.98
69597;BMP180;70000;51.176;-115.568;2024-01-15T00:08:35;86787.80;;;-23.00
69597;BMP180;70000;51.176;-115.568;2024-01-15T00:11:04;86800.00;;;-23.00
69597;BMP180;70000;51.176;-115.568;2024-01-15T00:13:33;86796.00;;;-23.02
69597;BMP180;70000;51.176;-115.568;2024-01-15T00:16:03;86798.20;;;-23.10
69597;BMP180;70000;51.176;-115.568;2024-01-15T00:18:32;86804.40;;;-23.12
69597;BMP180;70000;51.176;-115.568;2024-01-15T00:21:07;86805.60;;;-23.20
69597;BMP180;70000;51.176;-115.568;2024-01-15T00:23:43;86816.40;;;-23.20
69597;BMP180;70000;51.176;-115.568;2024-01-15T00:26:15;86829.80;;;-23.24
69597;BMP180;70000;51.176;-115.568;2024-01-15T00:28:44;86831.40;;;-23.28
69597;BMP180;70000;51.176;-115.568;2024-01-15T00:31:15;86836.80;;;-23.30
69597;BMP180;70000;51.176;-115.568;2024-01-15T00:33:44;86839.20;;;-23.30
69597;BMP180;70000;51.176;-115.568;2024-01-15T00:36:13;86841.60;;;-23.32
69597;BMP180;70000;51.176;-115.568;2024-01-15T00:38:44;86845.00;;;-23.30
69597;BMP180;70000;51.176;-115.568;2024-01-15T00:41:16;86849.40;;;-23.36
69597;BMP180;70000;51.176;-115.568;2024-01-15T00:43:45;86857.80;;;-23.40
69597;BMP180;70000;51.176;-115.568;2024-01-15T00:46:15;86859.00;;;-23.40
69597;BMP180;70000;51.176;-115.568;2024-01-15T00:48:44;86869.40;;;-23.48
69597;BMP180;70000;51.176;-115.568;2024-01-15T00:51:14;86877.00;;;-23.50
69597;BMP180;70000;51.176;-115.568;2024-01-15T00:53:43;86878.20;;;-23.54
69597;BMP180;70000;51.176;-115.568;2024-01-15T00:56:12;86897.60;;;-23.60
69597;BMP180;70000;51.176;-115.568;2024-01-15T00:58:44;86901.80;;;-23.60
69597;BMP180;70000;51.176;-115.568;2024-01-15T01:01:13;86900.40;;;-23.70
69597;BMP180;70000;51.176;-115.568;2024-01-15T01:03:44;86901.00;;;-23.80
69597;BMP180;70000;51.176;-115.568;2024-01-15T01:08:56;86905.40;;;-23.88
69597;BMP180;70000;51.176;-115.568;2024-01-15T01:11:25;86909.20;;;-23.90
69597;BMP180;70000;51.176;-115.568;2024-01-15T01:13:54;86914.00;;;-23.90
69597;BMP180;70000;51.176;-115.568;2024-01-15T01:16:24;86915.20;;;-23.90
69597;BMP180;70000;51.176;-115.568;2024-01-15T01:18:55;86925.00;;;-24.00
69597;BMP180;70000;51.176;-115.568;2024-01-15T01:21:25;86925.00;;;-24.00
69597;BMP180;70000;51.176;-115.568;2024-01-15T01:23:57;86938.00;;;-24.10
69597;BMP180;70000;51.176;-115.568;2024-01-15T01:26:26;86940.00;;;-24.14
69597;BMP180;70000;51.176;-115.568;2024-01-15T01:28:55;86939.00;;;-24.20
69597;BMP180;70000;51.176;-115.568;2024-01-15T01:31:24;86947.20;;;-24.30
69597;BMP180;70000;51.176;-115.568;2024-01-15T01:33:53;86948.40;;;-24.30
69597;BMP180;70000;51.176;-115.568;2024-01-15T01:36:22;86952.60;;;-24.30
69597;BMP180;70000;51.176;-115.568;2024-01-15T01:38:52;86956.20;;;-24.40
69597;BMP180;70000;51.176;-115.568;2024-01-15T01:41:21;86955.40;;;-24.40
69597;BMP180;70000;51.176;-115.568;2024-01-15T01:43:52;86961.60;;;-24.44
69597;BMP180;70000;51.176;-115.568;2024-01-15T01:46:22;86964.80;;;-24.50
69597;BMP180;70000;51.176;-115.568;2024-01-15T01:48:51;86970.40;;;-24.50
69597;BMP180;70000;51.176;-115.568;2024-01-15T01:51:26;86974.00;;;-24.60
69597;BMP180;70000;51.176;-115.568;2024-01-15T01:53:55;86981.80;;;-24.60
69597;BMP180;70000;51.176;-115.568;2024-01-15T01:56:27;86984.00;;;-24.70
69597;BMP180;70000;51.176;-115.568;2024-01-15T01:58:57;86987.80;;;-24.72
69597;BMP180;70000;51.176;-115.568;2024-01-15T02:01:27;86991.00;;;-24.80
69597;BMP180;70000;51.176;-115.568;2024-01-15T02:03:56;86993.00;;;-24.80
69597;BMP180;70000;51.176;-115.568;2024-01-15T02:06:26;86996.80;;;-24.80
69597;BMP180;70000;51.176;-115.568;2024-01-15T02:08:56;87004.60;;;-24.88
69597;BMP180;70000;51.176;-115.568;2024-01-15T02:11:25;87007.00;;;-24.88
69597;BMP180;70000;51.176;-115.568;2024-01-15T02:13:57;87011.20;;;-24.98
69597;BMP180;70000;51.176;-115.568;2024-01-15T02:16:26;87015.40;;;-24.98
69597;BMP180;70000;51.176;-115.568;2024-01-15T02:18:55;87020.40;;;-25.00
69597;BMP180;70000;51.176;-115.568;2024-01-15T02:21:24;87034.20;;;-25.00
69597;BMP180;70000;51.176;-115.568;2024-01-15T02:24:04;87023.20;;;-25.00
69597;BMP180;70000;51.176;-115.568;2024-01-15T02:26:33;87029.60;;;-25.00
69597;BMP180;70000;51.176;-115.568;2024-01-15T02:29:09;87036.20;;;-25.00
69597;BMP180;70000;51.176;-115.568;2024-01-15T02:31:39;87039.40;;;-25.00
69597;BMP180;70000;51.176;-115.568;2024-01-15T02:34:08;87048.40;;;-25.00
69597;BMP180;70000;51.176;-115.568;2024-01-15T02:36:37;87045.80;;;-25.00
69597;BMP180;70000;51.176;-115.568;2024-01-15T02:39:07;87054.40;;;-25.00
69597;BMP180;70000;51.176;-115.568;2024-01-15T02:41:37;87059.60;;;-25.06
69597;BMP180;70000;51.176;-115.568;2024-01-15T02:44:06;87069.80;;;-25.10
69597;BMP180;70000;51.176;-115.568;2024-01-15T02:46:35;87065.40;;;-25.10
69597;BMP180;70000;51.176;-115.568;2024-01-15T02:49:04;87065.40;;;-25.10
69597;BMP180;70000;51.176;-115.568;2024-01-15T02:51:33;87076.80;;;-25.10
69597;BMP180;70000;51.176;-115.568;2024-01-15T03:05:34;87097.20;;;-25.30
69597;BMP180;70000;51.176;-115.568;2024-01-15T03:08:03;87099.40;;;-25.30
69597;BMP180;70000;51.176;-115.568;2024-01-15T03:10:32;87102.80;;;-25.30
69597;BMP180;70000;51.176;-115.568;2024-01-15T03:13:01;87112.80;;;-25.30
69597;BMP180;70000;51.176;-115.568;2024-01-15T03:15:30;87112.20;;;-25.30
69597;BMP180;70000;51.176;-115.568;2024-01-15T03:17:58;87111.40;;;-25.34
69597;BMP180;70000;51.176;-115.568;2024-01-15T03:20:27;87121.60;;;-25.40
69597;BMP180;70000;51.176;-115.568;2024-01-15T03:22:55;87124.60;;;-25.40
69597;BMP180;70000;51.176;-115.568;2024-01-15T03:25:24;87131.20;;;-25.40
69597;BMP180;70000;51.176;-115.568;2024-01-15T03:27:55;87138.00;;;-25.40
69597;BMP180;70000;51.176;-115.568;2024-01-15T03:30:24;87145.00;;;-25.46
69597;BMP180;70000;51.176;-115.568;2024-01-15T03:32:53;87139.80;;;-25.50
69597;BMP180;70000;51.176;-115.568;2024-01-15T03:35:22;87147.20;;;-25.60
69597;BMP180;70000;51.176;-115.568;2024-01-15T03:37:52;87154.60;;;-25.64
69597;BMP180;70000;51.176;-115.568;2024-01-15T03:40:20;87160.00;;;-25.70
69597;BMP180;70000;51.176;-115.568;2024-01-15T03:42:50;87162.20;;;-25.76
69597;BMP180;70000;51.176;-115.568;2024-01-15T03:45:18;87165.60;;;-25.80
69597;BMP180;70000;51.176;-115.568;2024-01-15T03:47:47;87171.00;;;-25.88
69597;BMP180;70000;51.176;-115.568;2024-01-15T03:53:23;87185.00;;;-25.92
69597;BMP180;70000;51.176;-115.568;2024-01-15T03:55:56;87190.60;;;-25.90
69597;BMP180;70000;51.176;-115.568;2024-01-15T03:58:27;87196.60;;;-26.00
69597;BMP180;70000;51.176;-115.568;2024-01-15T04:00:56;87200.40;;;-26.00
69597;BMP180;70000;51.176;-115.568;2024-01-15T04:03:31;87204.20;;;-26.06
69597;BMP180;70000;51.176;-115.568;2024-01-15T04:09:06;87222.20;;;-26.10
69597;BMP180;70000;51.176;-115.568;2024-01-15T04:11:36;87221.60;;;-26.10
69597;BMP180;70000;51.176;-115.568;2024-01-15T04:14:05;87224.40;;;-26.12
69597;BMP180;70000;51.176;-115.568;2024-01-15T04:16:33;87226.20;;;-26.16
69597;BMP180;70000;51.176;-115.568;2024-01-15T04:19:03;87231.00;;;-26.20
69597;BMP180;70000;51.176;-115.568;2024-01-15T04:21:32;87223.00;;;-26.24
69597;BMP180;70000;51.176;-115.568;2024-01-15T04:24:01;87228.00;;;-26.30
69597;BMP180;70000;51.176;-115.568;2024-01-15T04:26:31;87228.00;;;-26.30
69597;BMP180;70000;51.176;-115.568;2024-01-15T04:29:03;87231.80;;;-26.30
69597;BMP180;70000;51.176;-115.568;2024-01-15T04:31:32;87236.60;;;-26.30
69597;BMP180;70000;51.176;-115.568;2024-01-15T04:34:04;87238.60;;;-26.30
69597;BMP180;70000;51.176;-115.568;2024-01-15T04:36:40;87235.00;;;-26.30
69597;BMP180;70000;51.176;-115.568;2024-01-15T04:39:10;87248.60;;;-26.30
69597;BMP180;70000;51.176;-115.568;2024-01-15T04:41:40;87258.60;;;-26.36
69597;BMP180;70000;51.176;-115.568;2024-01-15T04:44:09;87259.20;;;-26.48
69597;BMP180;70000;51.176;-115.568;2024-01-15T04:46:38;87259.80;;;-26.52
69597;BMP180;70000;51.176;-115.568;2024-01-15T04:49:07;87265.00;;;-26.64
69597;BMP180;70000;51.176;-115.568;2024-01-15T04:51:36;87277.80;;;-26.68
69597;BMP180;70000;51.176;-115.568;2024-01-15T04:54:06;87279.60;;;-26.70
69597;BMP180;70000;51.176;-115.568;2024-01-15T04:56:34;87282.40;;;-26.70
69597;BMP180;70000;51.176;-115.568;2024-01-15T04:59:03;87288.00;;;-26.70
69597;BMP180;70000;51.176;-115.568;2024-01-15T05:01:33;87283.00;;;-26.74
69597;BMP180;70000;51.176;-115.568;2024-01-15T05:04:02;87284.40;;;-26.76
69597;BMP180;70000;51.176;-115.568;2024-01-15T05:06:32;87288.40;;;-26.80
69597;BMP180;70000;51.176;-115.568;2024-01-15T05:09:02;87290.60;;;-26.90
69597;BMP180;70000;51.176;-115.568;2024-01-15T05:11:32;87293.20;;;-26.90
69597;BMP180;70000;51.176;-115.568;2024-01-15T05:14:01;87302.20;;;-27.00
69597;BMP180;70000;51.176;-115.568;2024-01-15T05:16:31;87309.80;;;-27.08
69597;BMP180;70000;51.176;-115.568;2024-01-15T05:19:00;87312.80;;;-27.10
69597;BMP180;70000;51.176;-115.568;2024-01-15T05:21:30;87319.40;;;-27.10
69597;BMP180;70000;51.176;-115.568;2024-01-15T05:23:59;87314.20;;;-27.12
69597;BMP180;70000;51.176;-115.568;2024-01-15T05:26:31;87313.40;;;-27.20
69597;BMP180;70000;51.176;-115.568;2024-01-15T05:29:00;87324.40;;;-27.30
69597;BMP180;70000;51.176;-115.568;2024-01-15T05:31:29;87315.00;;;-27.30
69597;BMP180;70000;51.176;-115.568;2024-01-15T05:33:58;87317.00;;;-27.32
69597;BMP180;70000;51.176;-115.568;2024-01-15T05:36:28;87323.80;;;-27.38
69597;BMP180;70000;51.176;-115.568;2024-01-15T05:38:57;87326.80;;;-27.40
69597;BMP180;70000;51.176;-115.568;2024-01-15T05:41:26;87324.20;;;-27.40
69597;BMP180;70000;51.176;-115.568;2024-01-15T05:43:55;87339.80;;;-27.50
69597;BMP180;70000;51.176;-115.568;2024-01-15T05:46:24;87333.60;;;-27.60
69597;BMP180;70000;51.176;-115.568;2024-01-15T05:48:53;87339.60;;;-27.60
69597;BMP180;70000;51.176;-115.568;2024-01-15T05:51:22;87340.60;;;-27.62
69597;BMP180;70000;51.176;-115.568;2024-01-15T05:53:52;87342.60;;;-27.64
69597;BMP180;70000;51.176;-115.568;2024-01-15T05:56:21;87349.80;;;-27.64
69597;BMP180;70000;51.176;-115.568;2024-01-15T05:58:52;87347.40;;;-27.68
69597;BMP180;70000;51.176;-115.568;2024-01-15T06:01:22;87343.60;;;-27.64
69597;BMP180;70000;51.176;-115.568;2024-01-15T06:03:51;87344.00;;;-27.60
69597;BMP180;70000;51.176;-115.568;2024-01-15T06:06:21;87347.20;;;-27.62
69597;BMP180;70000;51.176;-115.568;2024-01-15T06:08:50;87347.40;;;-27.60
69597;BMP180;70000;51.176;-115.568;2024-01-15T06:11:18;87350.60;;;-27.60
69597;BMP180;70000;51.176;-115.568;2024-01-15T06:13:47;87353.60;;;-27.60
69597;BMP180;70000;51.176;-115.568;2024-01-15T06:16:16;87348.00;;;-27.60
69597;BMP180;70000;51.176;-115.568;2024-01-15T06:18:47;87343.20;;;-27.60
69597;BMP180;70000;51.176;-115.568;2024-01-15T06:21:17;87346.80;;;-27.60
69597;BMP180;70000;51.176;-115.568;2024-01-15T06:26:51;87351.60;;;-27.68
69597;BMP180;70000;51.176;-115.568;2024-01-15T06:29:26;87351.20;;;-27.70
69597;BMP180;70000;51.176;-115.568;2024-01-15T06:31:56;87356.80;;;-27.70
69597;BMP180;70000;51.176;-115.568;2024-01-15T06:34:25;87355.40;;;-27.78
69597;BMP180;70000;51.176;-115.568;2024-01-15T06:36:54;87364.40;;;-27.80
69597;BMP180;70000;51.176;-115.568;2024-01-15T06:39:23;87365.40;;;-27.80
69597;BMP180;70000;51.176;-115.568;2024-01-15T06:41:52;87370.20;;;-27.80
69597;BMP180;70000;51.176;-115.568;2024-01-15T06:44:21;87369.60;;;-27.80
69597;BMP180;70000;51.176;-115.568;2024-01-15T06:46:50;87380.40;;;-27.80
69597;BMP180;70000;51.176;-115.568;2024-01-15T06:49:20;87379.60;;;-27.80
69597;BMP180;70000;51.176;-115.568;2024-01-15T06:51:49;87390.20;;;-27.90
69597;BMP180;70000;51.176;-115.568;2024-01-15T06:54:18;87395.60;;;-27.90
69597;BMP180;70000;51.176;-115.568;2024-01-15T06:56:48;87392.80;;;-27.90
69597;BMP180;70000;51.176;-115.568;2024-01-15T06:59:20;87396.60;;;-27.90
69597;BMP180;70000;51.176;-115.568;2024-01-15T07:01:49;87390.00;;;-27.90
69597;BMP180;70000;51.176;-115.568;2024-01-15T07:04:18;87404.20;;;-27.90
69597;BMP180;70000;51.176;-115.568;2024-01-15T07:06:47;87400.00;;;-27.92
69597;BMP180;70000;51.176;-115.568;2024-01-15T07:09:16;87408.60;;;-28.02
69597;BMP180;70000;51.176;-115.568;2024-01-15T07:11:46;87406.80;;;-28.10
69597;BMP180;70000;51.176;-115.568;2024-01-15T07:14:15;87398.40;;;-28.08
69597;BMP180;70000;51.176;-115.568;2024-01-15T07:16:45;87407.60;;;-28.10
69597;BMP180;70000;51.176;-115.568;2024-01-15T07:19:15;87416.60;;;-28.04
69597;BMP180;70000;51.176;-115.568;2024-01-15T07:21:47;87416.80;;;-28.10
69597;BMP180;70000;51.176;-115.568;2024-01-15T07:24:17;87424.20;;;-28.10
69597;BMP180;70000;51.176;-115.568;2024-01-15T07:26:48;87423.20;;;-28.06
69597;BMP180;70000;51.176;-115.568;2024-01-15T07:29:18;87426.80;;;-28.08
69597;BMP180;70000;51.176;-115.568;2024-01-15T07:31:50;87423.80;;;-28.08
69597;BMP180;70000;51.176;-115.568;2024-01-15T07:34:20;87426.20;;;-28.10
69597;BMP180;70000;51.176;-115.568;2024-01-15T07:36:50;87423.20;;;-28.10
69597;BMP180;70000;51.176;-115.568;2024-01-15T07:39:20;87417.80;;;-28.10
69597;BMP180;70000;51.176;-115.568;2024-01-15T07:41:52;87422.60;;;-28.10
69597;BMP180;70000;51.176;-115.568;2024-01-15T07:44:21;87424.40;;;-28.14
69597;BMP180;70000;51.176;-115.568;2024-01-15T07:46:50;87426.00;;;-28.10
69597;BMP180;70000;51.176;-115.568;2024-01-15T07:49:19;87425.40;;;-28.10
69597;BMP180;70000;51.176;-115.568;2024-01-15T07:51:48;87423.20;;;-28.18
69597;BMP180;70000;51.176;-115.568;2024-01-15T07:54:20;87428.40;;;-28.20
69597;BMP180;70000;51.176;-115.568;2024-01-15T07:57:01;87432.40;;;-28.26
69597;BMP180;70000;51.176;-115.568;2024-01-15T07:59:35;87432.20;;;-28.30
69597;BMP180;70000;51.176;-115.568;2024-01-15T08:02:04;87442.20;;;-28.32
69597;BMP180;70000;51.176;-115.568;2024-01-15T08:04:33;87441.00;;;-28.36
69597;BMP180;70000;51.176;-115.568;2024-01-15T08:07:03;87446.40;;;-28.50
69597;BMP180;70000;51.176;-115.568;2024-01-15T08:09:33;87443.80;;;-28.60
69597;BMP180;70000;51.176;-115.568;2024-01-15T08:12:02;87450.00;;;-28.70
69597;BMP180;70000;51.176;-115.568;2024-01-15T08:14:34;87444.40;;;-28.70
69597;BMP180;70000;51.176;-115.568;2024-01-15T08:17:03;87446.60;;;-28.70
69597;BMP180;70000;51.176;-115.568;2024-01-15T08:19:32;87451.00;;;-28.80
69597;BMP180;70000;51.176;-115.568;2024-01-15T08:22:01;87457.00;;;-28.88
69597;BMP180;70000;51.176;-115.568;2024-01-15T08:24:30;87456.80;;;-28.90
69597;BMP180;70000;51.176;-115.568;2024-01-15T08:27:00;87459.00;;;-28.90
69597;BMP180;70000;51.176;-115.568;2024-01-15T08:29:29;87456.00;;;-28.90
69597;BMP180;70000;51.176;-115.568;2024-01-15T08:32:02;87457.60;;;-28.90
69597;BMP180;70000;51.176;-115.568;2024-01-15T08:34:32;87461.20;;;-28.90
69597;BMP180;70000;51.176;-115.568;2024-01-15T08:37:01;87472.40;;;-28.98
69597;BMP180;70000;51.176;-115.568;2024-01-15T08:39:31;87467.20;;;-29.00
69597;BMP180;70000;51.176;-115.568;2024-01-15T08:42:00;87469.20;;;-29.06
69597;BMP180;70000;51.176;-115.568;2024-01-15T08:44:29;87469.00;;;-29.00
69597;BMP180;70000;51.176;-115.568;2024-01-15T08:46:58;87464.40;;;-29.00
69597;BMP180;70000;51.176;-115.568;2024-01-15T08:49:28;87474.20;;;-29.02
69597;BMP180;70000;51.176;-115.568;2024-01-15T08:51:57;87474.60;;;-29.10
69597;BMP180;70000;51.176;-115.568;2024-01-15T08:54:29;87473.20;;;-29.12
69597;BMP180;70000;51.176;-115.568;2024-01-15T08:57:02;87467.60;;;-29.20
69597;BMP180;70000;51.176;-115.568;2024-01-15T08:59:34;87466.00;;;-29.20
69597;BMP180;70000;51.176;-115.568;2024-01-15T09:02:03;87476.40;;;-29.20
69597;BMP180;70000;51.176;-115.568;2024-01-15T09:04:32;87486.80;;;-29.20
69597;BMP180;70000;51.176;-115.568;2024-01-15T09:07:01;87476.40;;;-29.20
69597;BMP180;70000;51.176;-115.568;2024-01-15T09:09:40;87481.60;;;-29.20
69597;BMP180;70000;51.176;-115.568;2024-01-15T09:12:10;87483.20;;;-29.20
69597;BMP180;70000;51.176;-115.568;2024-01-15T09:14:44;87488.00;;;-29.20
69597;BMP180;70000;51.176;-115.568;2024-01-15T09:17:16;87492.00;;;-29.20
69597;BMP180;70000;51.176;-115.568;2024-01-15T09:19:58;87496.20;;;-29.20
69597;BMP180;70000;51.176;-115.568;2024-01-15T09:22:28;87503.80;;;-29.20
69597;BMP180;70000;51.176;-115.568;2024-01-15T09:24:58;87503.80;;;-29.20
69597;BMP180;70000;51.176;-115.568;2024-01-15T09:27:27;87512.40;;;-29.28
69597;BMP180;70000;51.176;-115.568;2024-01-15T09:29:59;87526.20;;;-29.30
69597;BMP180;70000;51.176;-115.568;2024-01-15T09:32:28;87526.60;;;-29.30
69597;BMP180;70000;51.176;-115.568;2024-01-15T09:34:57;87522.80;;;-29.30
69597;BMP180;70000;51.176;-115.568;2024-01-15T09:37:26;87534.80;;;-29.32
69597;BMP180;70000;51.176;-115.568;2024-01-15T09:43:20;87525.00;;;-29.26
69597;BMP180;70000;51.176;-115.568;2024-01-15T09:45:50;87521.80;;;-29.22
69597;BMP180;70000;51.176;-115.568;2024-01-15T09:48:29;87532.80;;;-29.20
69597;BMP180;70000;51.176;-115.568;2024-01-15T09:54:12;87523.00;;;-29.10
69597;BMP180;70000;51.176;-115.568;2024-01-15T09:56:48;87521.20;;;-29.10
69597;BMP180;70000;51.176;-115.568;2024-01-15T09:59:29;87533.80;;;-29.18
69597;BMP180;70000;51.176;-115.568;2024-01-15T10:02:00;87530.20;;;-29.22
69597;BMP180;70000;51.176;-115.568;2024-01-15T10:04:30;87534.20;;;-29.24
69597;BMP180;70000;51.176;-115.568;2024-01-15T10:07:01;87543.00;;;-29.30
69597;BMP180;70000;51.176;-115.568;2024-01-15T10:09:30;87532.20;;;-29.22
69597;BMP180;70000;51.176;-115.568;2024-01-15T10:12:00;87541.60;;;-29.20
69597;BMP180;70000;51.176;-115.568;2024-01-15T10:14:30;87533.40;;;-29.22
69597;BMP180;70000;51.176;-115.568;2024-01-15T10:17:13;87528.60;;;-29.20
69597;BMP180;70000;51.176;-115.568;2024-01-15T10:19:48;87524.40;;;-29.12
69597;BMP180;70000;51.176;-115.568;2024-01-15T10:22:26;87527.20;;;-29.10
69597;BMP180;70000;51.176;-115.568;2024-01-15T10:24:58;87533.80;;;-29.10
69597;BMP180;70000;51.176;-115.568;2024-01-15T10:27:27;87525.20;;;-29.10
69597;BMP180;70000;51.176;-115.568;2024-01-15T10:30:00;87527.60;;;-29.10
69597;BMP180;70000;51.176;-115.568;2024-01-15T10:32:30;87525.80;;;-29.10
69597;BMP180;70000;51.176;-115.568;2024-01-15T10:35:03;87533.40;;;-29.20
69597;BMP180;70000;51.176;-115.568;2024-01-15T10:37:38;87540.00;;;-29.22
69597;BMP180;70000;51.176;-115.568;2024-01-15T10:40:10;87534.80;;;-29.30
69597;BMP180;70000;51.176;-115.568;2024-01-15T10:42:41;87545.20;;;-29.30
69597;BMP180;70000;51.176;-115.568;2024-01-15T10:45:17;87542.20;;;-29.26
69597;BMP180;70000;51.176;-115.568;2024-01-15T10:47:47;87539.60;;;-29.28
69597;BMP180;70000;51.176;-115.568;2024-01-15T10:50:17;87545.40;;;-29.30
69597;BMP180;70000;51.176;-115.568;2024-01-15T10:52:46;87541.80;;;-29.32
69597;BMP180;70000;51.176;-115.568;2024-01-15T10:55:16;87546.40;;;-29.40
69597;BMP180;70000;51.176;-115.568;2024-01-15T10:57:49;87556.80;;;-29.40
69597;BMP180;70000;51.176;-115.568;2024-01-15T11:00:22;87553.80;;;-29.40
69597;BMP180;70000;51.176;-115.568;2024-01-15T11:02:55;87554.40;;;-29.40
69597;BMP180;70000;51.176;-115.568;2024-01-15T11:05:25;87553.60;;;-29.50
69597;BMP180;70000;51.176;-115.568;2024-01-15T11:08:01;87554.60;;;-29.50
69597;BMP180;70000;51.176;-115.568;2024-01-15T11:10:50;87553.20;;;-29.50
69597;BMP180;70000;51.176;-115.568;2024-01-15T11:13:40;87549.80;;;-29.50
69597;BMP180;70000;51.176;-115.568;2024-01-15T11:16:16;87547.20;;;-29.60
69597;BMP180;70000;51.176;-115.568;2024-01-15T11:19:03;87546.80;;;-29.58
69597;BMP180;70000;51.176;-115.568;2024-01-15T11:21:42;87545.80;;;-29.54
69597;BMP180;70000;51.176;-115.568;2024-01-15T11:24:39;87541.60;;;-29.50
69597;BMP180;70000;51.176;-115.568;2024-01-15T11:27:08;87537.00;;;-29.50
69597;BMP180;70000;51.176;-115.568;2024-01-15T11:29:38;87536.60;;;-29.50
69597;BMP180;70000;51.176;-115.568;2024-01-15T11:32:09;87543.60;;;-29.50
69597;BMP180;70000;51.176;-115.568;2024-01-15T11:34:59;87543.20;;;-29.46
69597;BMP180;70000;51.176;-115.568;2024-01-15T11:43:11;87531.20;;;-29.50
69597;BMP180;70000;51.176;-115.568;2024-01-15T11:45:41;87525.00;;;-29.44
69597;BMP180;70000;51.176;-115.568;2024-01-15T11:48:18;87534.40;;;-29.46
69597;BMP180;70000;51.176;-115.568;2024-01-15T11:50:52;87537.40;;;-29.40
69597;BMP180;70000;51.176;-115.568;2024-01-15T11:56:43;87533.20;;;-29.36
69597;BMP180;70000;51.176;-115.568;2024-01-15T11:59:13;87530.60;;;-29.34
69597;BMP180;70000;51.176;-115.568;2024-01-15T12:01:42;87533.00;;;-29.30
69597;BMP180;70000;51.176;-115.568;2024-01-15T12:04:10;87525.40;;;-29.30
69597;BMP180;70000;51.176;-115.568;2024-01-15T12:06:43;87526.00;;;-29.32
69597;BMP180;70000;51.176;-115.568;2024-01-15T12:09:15;87525.40;;;-29.30
69597;BMP180;70000;51.176;-115.568;2024-01-15T12:11:57;87529.00;;;-29.30
69597;BMP180;70000;51.176;-115.568;2024-01-15T12:14:32;87524.00;;;-29.32
69597;BMP180;70000;51.176;-115.568;2024-01-15T12:17:03;87527.80;;;-29.38
69597;BMP180;70000;51.176;-115.568;2024-01-15T12:19:32;87523.80;;;-29.32
69597;BMP180;70000;51.176;-115.568;2024-01-15T12:22:04;87529.00;;;-29.34
69597;BMP180;70000;51.176;-115.568;2024-01-15T12:27:08;87518.40;;;-29.30
69597;BMP180;70000;51.176;-115.568;2024-01-15T12:29:38;87516.00;;;-29.40
69597;BMP180;70000;51.176;-115.568;2024-01-15T12:32:07;87517.60;;;-29.40
69597;BMP180;70000;51.176;-115.568;2024-01-15T12:34:38;87509.00;;;-29.40
69597;BMP180;70000;51.176;-115.568;2024-01-15T12:37:10;87508.80;;;-29.40
69597;BMP180;70000;51.176;-115.568;2024-01-15T12:39:43;87504.40;;;-29.34
69597;BMP180;70000;51.176;-115.568;2024-01-15T12:42:18;87500.20;;;-29.30
69597;BMP180;70000;51.176;-115.568;2024-01-15T12:44:47;87501.60;;;-29.30
69597;BMP180;70000;51.176;-115.568;2024-01-15T12:47:20;87483.40;;;-29.24
69597;BMP180;70000;51.176;-115.568;2024-01-15T12:49:53;87483.00;;;-29.30
69597;BMP180;70000;51.176;-115.568;2024-01-15T12:52:33;87479.20;;;-29.30
69597;BMP180;70000;51.176;-115.568;2024-01-15T12:55:04;87476.20;;;-29.24
69597;BMP180;70000;51.176;-115.568;2024-01-15T12:57:38;87469.40;;;-29.22
69597;BMP180;70000;51.176;-115.568;2024-01-15T13:00:13;87462.40;;;-29.20
69597;BMP180;70000;51.176;-115.568;2024-01-15T13:02:43;87458.20;;;-29.20
69597;BMP180;70000;51.176;-115.568;2024-01-15T13:05:12;87453.60;;;-29.16
69597;BMP180;70000;51.176;-115.568;2024-01-15T13:07:42;87447.00;;;-29.12
69597;BMP180;70000;51.176;-115.568;2024-01-15T13:10:12;87447.20;;;-29.10
69597;BMP180;70000;51.176;-115.568;2024-01-15T13:12:47;87444.80;;;-29.14
69597;BMP180;70000;51.176;-115.568;2024-01-15T13:15:19;87439.00;;;-29.18
69597;BMP180;70000;51.176;-115.568;2024-01-15T13:17:48;87450.00;;;-29.16
69597;BMP180;70000;51.176;-115.568;2024-01-15T13:20:17;87446.20;;;-29.18
69597;BMP180;70000;51.176;-115.568;2024-01-15T13:22:46;87449.60;;;-29.10
69597;BMP180;70000;51.176;-115.568;2024-01-15T13:25:18;87455.00;;;-29.16
69597;BMP180;70000;51.176;-115.568;2024-01-15T13:27:50;87446.00;;;-29.16
69597;BMP180;70000;51.176;-115.568;2024-01-15T13:33:52;87455.60;;;-29.30
69597;BMP180;70000;51.176;-115.568;2024-01-15T13:36:22;87449.00;;;-29.30
69597;BMP180;70000;51.176;-115.568;2024-01-15T13:38:52;87457.00;;;-29.20
69597;BMP180;70000;51.176;-115.568;2024-01-15T13:41:22;87461.60;;;-29.28
69597;BMP180;70000;51.176;-115.568;2024-01-15T13:43:58;87470.20;;;-29.30
69597;BMP180;70000;51.176;-115.568;2024-01-15T13:46:30;87459.60;;;-29.24
69597;BMP180;70000;51.176;-115.568;2024-01-15T13:49:01;87457.80;;;-29.20
69597;BMP180;70000;51.176;-115.568;2024-01-15T13:51:30;87459.80;;;-29.20
69597;BMP180;70000;51.176;-115.568;2024-01-15T13:53:59;87445.40;;;-29.10
69597;BMP180;70000;51.176;-115.568;2024-01-15T13:56:27;87456.00;;;-29.16
69597;BMP180;70000;51.176;-115.568;2024-01-15T13:59:00;87453.80;;;-29.12
69597;BMP180;70000;51.176;-115.568;2024-01-15T14:01:29;87443.40;;;-29.12
69597;BMP180;70000;51.176;-115.568;2024-01-15T14:04:00;87452.80;;;-29.10
69597;BMP180;70000;51.176;-115.568;2024-01-15T14:06:30;87458.80;;;-29.10
69597;BMP180;70000;51.176;-115.568;2024-01-15T14:08:58;87463.40;;;-29.10
69597;BMP180;70000;51.176;-115.568;2024-01-15T14:11:27;87455.80;;;-29.08
69597;BMP180;70000;51.176;-115.568;2024-01-15T14:13:55;87457.00;;;-29.00
69597;BMP180;70000;51.176;-115.568;2024-01-15T14:16:27;87446.80;;;-29.00
69597;BMP180;70000;51.176;-115.568;2024-01-15T14:18:55;87445.20;;;-28.92
69597;BMP180;70000;51.176;-115.568;2024-01-15T14:21:24;87443.80;;;-28.90
69597;BMP180;70000;51.176;-115.568;2024-01-15T14:23:52;87437.20;;;-28.90
69597;BMP180;70000;51.176;-115.568;2024-01-15T14:26:20;87440.20;;;-28.90